Flight Track Log - Related Links

Times and Time Zones

All times are in EDT time to prevent confusion due to time zone crossing. See the DAL3759 flight status page for this flight to view local times or setup timezone preferences in your user account.

Time Position Orientation Groundspeed Altitude Reporting Facility
EDT Latitude Longitude Course Direction KTS MPH feet Rate Location/Type
Fri 07:38:34 AM 42.1994 -83.3581 98° East 152 175 1,600  Level Cleveland Center
Fri 07:39:35 AM 42.1531 -83.3756 196° South 188 216 3,900 2,361 Climbing Cleveland Center
Fri 07:40:36 AM 42.0961 -83.4039 200° South 232 267 6,400 2,628 Climbing Cleveland Center
Fri 07:41:00 AM 42.1498 -82.9147 101° East  Level FlightAware
Fri 07:41:36 AM 42.0583 -83.3381 128° Southeast 282 325 9,200  Level Cleveland Center
Fri 07:42:00 AM 42.1231 -82.7694 114° Southeast  Level FlightAware
Fri 07:42:36 AM 42.0606 -83.2400 88° East 301 346 11,200  Level Cleveland Center
Fri 07:43:00 AM 42.1039 -82.6221 98° East  Level FlightAware
Fri 07:43:35 AM 42.0653 -83.1172 87° East 349 402 12,800  Level Cleveland Center
Fri 07:44:36 AM 42.0703 -82.9861 87° East 356 410 14,600 1,835 Climbing Cleveland Center
Fri 07:45:36 AM 42.0750 -82.8575 87° East 356 410 16,500 1,600 Climbing Cleveland Center
Fri 07:46:36 AM 42.0775 -82.7233 89° East 351 404 17,800 1,361 Climbing Cleveland Center
Fri 07:47:35 AM 42.0822 -82.5836 87° East 356 410 19,200 1,462 Climbing Cleveland Center
Fri 07:48:35 AM 42.0825 -82.4408 90° East 368 423 20,700 1,240 Climbing Cleveland Center
Fri 07:49:36 AM 42.0575 -82.3003 103° East 373 429 21,700 793 Climbing Cleveland Center
Fri 07:50:36 AM 42.0369 -82.1458 100° East 393 452 22,300 650 Climbing Cleveland Center
Fri 07:51:36 AM 41.9636 -82.0128 127° Southeast 394 453 23,000 756 Climbing Cleveland Center
Fri 07:52:35 AM 41.8708 -81.9217 144° Southeast 397 457 23,800 900 Climbing Cleveland Center
Fri 07:53:36 AM 41.7675 -81.8469 152° Southeast 415 478 24,800 893 Climbing Cleveland Center
Fri 07:54:36 AM 41.6661 -81.7672 150° Southeast 422 486 25,600 650 Climbing Cleveland Center
Fri 07:55:36 AM 41.5731 -81.6989 151° Southeast 422 486 26,100 555 Climbing Cleveland Center
Fri 07:56:35 AM 41.4694 -81.6194 150° Southeast 422 486 26,700 850 Climbing Cleveland Center
Fri 07:57:36 AM 41.3597 -81.5375 151° Southeast 422 486 27,800 1,041 Climbing Cleveland Center
Fri 07:58:36 AM 41.2583 -81.4586 150° Southeast 416 479 28,800 600 Climbing Cleveland Center
Fri 07:59:36 AM 41.1525 -81.3856 153° Southeast 416 479 29,000 100 Climbing Cleveland Center
Fri 08:00:36 AM 41.0467 -81.3072 151° Southeast 429 494 29,000  Level Cleveland Center
Fri 08:01:36 AM 40.9450 -81.2319 151° Southeast 429 494 29,000  Level Cleveland Center
Fri 08:02:35 AM 40.8369 -81.1539 151° Southeast 433 498 29,000  Level Cleveland Center
Fri 08:03:36 AM 40.7331 -81.0792 151° Southeast 433 498 29,000  Level Cleveland Center
Fri 08:04:36 AM 40.6314 -80.9989 149° Southeast 428 493 29,000  Level Cleveland Center
Fri 08:05:36 AM 40.5272 -80.9272 152° Southeast 428 493 29,000  Level Cleveland Center
Fri 08:06:36 AM 40.4211 -80.8478 150° Southeast 428 493 29,000  Level Cleveland Center
Fri 08:07:36 AM 40.3150 -80.7711 151° Southeast 428 493 29,000  Level Cleveland Center
Fri 08:08:35 AM 40.2108 -80.6972 152° Southeast 428 493 29,000  Level Cleveland Center
Fri 08:09:36 AM 40.1150 -80.6292 151° Southeast 433 498 29,000  Level Cleveland Center
Fri 08:10:35 AM 40.0089 -80.5533 151° Southeast 433 498 29,000  Level Cleveland Center
Fri 08:11:36 AM 39.9025 -80.4775 151° Southeast 433 498 29,000  Level Cleveland Center
Fri 08:12:36 AM 39.7961 -80.4019 151° Southeast 433 498 29,000  Level Cleveland Center
Fri 08:14:11 AM 39.6286 -80.2853 152° Southeast 425 489 29,000  Level Washington Center
Fri 08:15:12 AM 39.5231 -80.2111 152° Southeast 425 489 29,000  Level Washington Center
Fri 08:16:12 AM 39.4153 -80.1369 152° Southeast 425 489 29,000  Level Washington Center
Fri 08:17:13 AM 39.3078 -80.0633 152° Southeast 430 495 29,000  Level Washington Center
Fri 08:18:11 AM 39.2019 -79.9872 151° Southeast 435 501 29,000  Level Washington Center
Fri 08:19:12 AM 39.0964 -79.9139 152° Southeast 435 501 29,000  Level Washington Center
Fri 08:20:13 AM 38.9761 -79.8372 154° Southeast 435 501 29,000  Level Washington Center
Fri 08:21:12 AM 38.8703 -79.7644 152° Southeast 435 501 29,000  Level Washington Center
Fri 08:22:12 AM 38.7644 -79.6892 151° Southeast 435 501 29,000  Level Washington Center
Fri 08:23:13 AM 38.6664 -79.6253 153° Southeast 435 501 29,000  Level Washington Center
Fri 08:24:11 AM 38.5603 -79.5531 152° Southeast 435 501 29,000 -353 Level Washington Center
Fri 08:25:12 AM 38.4522 -79.4783 152° Southeast 442 509 28,300 -942 Descending Washington Center
Fri 08:26:12 AM 38.3381 -79.4036 153° Southeast 442 509 27,100 -645 Descending Washington Center
Fri 08:27:13 AM 38.2136 -79.3153 151° Southeast 459 528 27,000 -50 Descending Washington Center
Fri 08:28:11 AM 38.1031 -79.2411 152° Southeast 459 528 27,000 -50 Level Washington Center
Fri 08:29:12 AM 37.9928 -79.1700 153° Southeast 453 521 26,900 -545 Descending Washington Center
Fri 08:30:12 AM 37.8933 -79.0758 143° Southeast 448 516 25,900 -992 Descending Washington Center
Fri 08:31:13 AM 37.8475 -78.9239 111° Southeast 433 498 24,900 -942 Descending Washington Center
Fri 08:32:13 AM 37.8058 -78.7719 109° East 439 505 24,000 -974 Descending Washington Center
Fri 08:33:10 AM 37.7697 -78.6392 109° East 450 518 23,000 -1,008 Descending Washington Center
Fri 08:34:12 AM 37.7253 -78.4903 111° Southeast 450 518 22,000 -780 Descending Washington Center
Fri 08:35:13 AM 37.6828 -78.3444 110° East 450 518 21,400 -492 Descending Washington Center
Fri 08:36:14 AM 37.6422 -78.2039 110° East 439 505 21,000 -203 Descending Washington Center
Fri 08:37:11 AM 37.5933 -78.0528 112° Southeast 427 491 21,000 -356 Level Washington Center
Fri 08:38:12 AM 37.5542 -77.9206 110° East 414 476 20,300 -885 Descending Washington Center
Fri 08:39:13 AM 37.5256 -77.7836 105° East 409 471 19,200 -1,119 Descending Washington Center
Fri 08:40:10 AM 37.5153 -77.6444 95° East 403 464 18,100 -908 Descending Washington Center
Fri 08:41:12 AM 37.5072 -77.5133 94° East 386 444 17,400 -885 Descending Washington Center
Fri 08:42:12 AM 37.4986 -77.3875 95° East 369 425 16,300 -1,091 Descending Washington Center
Fri 08:43:13 AM 37.4881 -77.2642 96° East 363 418 15,200 -1,091 Descending Washington Center
Fri 08:44:13 AM 37.4792 -77.1436 95° East 352 405 14,100 -559 Descending Washington Center
Fri 08:45:11 AM 37.4703 -77.0206 95° East 352 405 14,100  Level Washington Center
Fri 08:46:12 AM 37.4611 -76.9053 96° East 345 397 14,100  Level Washington Center
Fri 08:46:58 AM 37.4558 -76.8189 94° East 339 390 14,100  Level Washington Center
Fri 08:47:13 AM 37.4542 -76.7822 93° East 345 397 14,100  Level Washington Center
Fri 08:47:40 AM 37.4503 -76.7375 96° East 337 388 14,100  Level Washington Center
Fri 08:48:11 AM 37.4425 -76.6642 98° East 345 397 14,100  Level Washington Center
Fri 08:48:47 AM 37.4286 -76.6014 106° East 338 389 14,100  Level Washington Center
Fri 08:49:12 AM 37.4247 -76.5489 95° East 340 391 14,100  Level Washington Center
Fri 08:49:48 AM 37.4106 -76.4861 106° East 345 397 14,100  Level Washington Center
Fri 08:50:12 AM 37.3817 -76.4492 135° Southeast 319 367 14,100  Level Washington Center
Fri 08:50:43 AM 37.3339 -76.4331 165° South 356 410 14,100 -590 Level Washington Center
Fri 08:51:13 AM 37.2903 -76.4036 152° Southeast 320 368 13,500 -1,700 Descending Washington Center
Fri 08:51:43 AM 37.2444 -76.3772 155° Southeast 352 405 12,400 -2,200 Descending Washington Center
Fri 08:52:13 AM 37.2072 -76.3508 151° Southeast 332 382 11,300 -2,000 Descending Washington Center
Fri 08:52:49 AM 37.1614 -76.3242 155° Southeast 293 337 10,200 -1,759 Descending Washington Center
Fri 08:53:11 AM 37.1325 -76.3031 150° Southeast 319 367 9,600 -1,770 Descending Washington Center
Fri 08:53:50 AM 37.0867 -76.2792 157° South 276 318 8,400 -1,800 Descending Washington Center
Fri 08:54:11 AM 37.0639 -76.2633 151° Southeast 294 338 7,800 -1,791 Descending Washington Center
Fri 08:54:57 AM 37.0158 -76.2369 156° South 262 302 6,400 -1,770 Descending Washington Center
Fri 08:55:12 AM 36.9992 -76.2264 153° Southeast 273 314 6,000 -1,418 Descending Washington Center
Fri 08:55:52 AM 36.9575 -76.2494 204° Southwest 267 307 5,100 -1,138 Descending Washington Center
Fri 08:56:10 AM 36.9406 -76.2675 220° Southwest 232 267 4,900 -492 Descending Washington Center
Fri 08:56:53 AM 36.9092 -76.3036 223° Southwest 192 221 4,600 -419 Descending Washington Center

Login

Don't have an account? Register now (free) for customized features, flight alerts, and more!